Time;durP1;ratioP1;P1;durP2;ratioP2;P2;SDS_P1;SDS_P2;PMS_P1;PMS_P2;Temp;Humidity;BMP_temperature;BMP_pressure;BME280_temperature;BME280_humidity;BME280_pressure;Samples;Min_cycle;Max_cycle;Signal;HPM_P1;HPM_P2
2022/02/14 00:02:11;;;;;;;3.03;2.83;;;1.80;83.50;;;;;;5013135;28;20685;-75
2022/02/14 00:04:37;;;;;;;2.97;2.70;;;1.80;83.50;;;;;;5006716;28;20387;-75
2022/02/14 00:07:03;;;;;;;5.30;2.93;;;1.80;83.60;;;;;;5010207;28;20263;-75
2022/02/14 00:09:29;;;;;;;3.30;2.50;;;1.80;83.60;;;;;;5015073;28;20856;-76
2022/02/14 00:11:54;;;;;;;3.03;2.87;;;1.80;83.70;;;;;;5009797;28;20241;-76
2022/02/14 00:14:21;;;;;;;6.20;3.27;;;1.80;83.60;;;;;;5005837;28;20679;-75
2022/02/14 00:16:47;;;;;;;2.60;2.47;;;1.90;83.60;;;;;;5009581;28;20271;-74
2022/02/14 00:19:15;;;;;;;4.37;2.97;;;1.90;83.40;;;;;;5013692;28;20271;-76
2022/02/14 00:21:41;;;;;;;2.83;2.57;;;1.90;83.40;;;;;;5010003;28;20602;-75
2022/02/14 00:24:09;;;;;;;3.33;2.90;;;2.00;83.40;;;;;;5008877;28;20712;-75
2022/02/14 00:26:35;;;;;;;2.70;2.53;;;2.00;83.40;;;;;;5009935;28;20188;-75
2022/02/14 00:29:01;;;;;;;4.43;3.23;;;2.10;83.40;;;;;;5013741;28;20187;-75
2022/02/14 00:31:27;;;;;;;3.70;3.40;;;2.10;83.30;;;;;;5007713;28;20192;-75
2022/02/14 00:33:53;;;;;;;3.80;2.30;;;2.10;83.20;;;;;;5010709;28;20177;-75
2022/02/14 00:36:21;;;;;;;2.57;2.40;;;2.20;83.20;;;;;;5010566;28;20191;-76
2022/02/14 00:38:47;;;;;;;5.00;2.50;;;2.20;83.10;;;;;;5012164;28;20246;-75
2022/02/14 00:41:15;;;;;;;3.87;2.60;;;2.30;83.00;;;;;;5009391;28;20706;-75
2022/02/14 00:43:43;;;;;;;5.03;2.77;;;2.30;82.90;;;;;;5013720;28;20195;-76
2022/02/14 00:46:09;;;;;;;3.97;2.90;;;2.40;82.80;;;;;;5009210;28;20192;-75
2022/02/14 00:48:35;;;;;;;2.97;2.87;;;2.40;82.80;;;;;;5014316;28;20237;-76
2022/02/14 00:51:01;;;;;;;4.17;3.20;;;2.40;82.70;;;;;;5010952;28;20199;-76
2022/02/14 00:53:27;;;;;;;4.70;3.20;;;2.50;82.70;;;;;;5016988;28;20181;-76
2022/02/14 00:55:53;;;;;;;3.30;3.00;;;2.50;82.60;;;;;;5009373;28;20695;-76
2022/02/14 00:58:19;;;;;;;3.07;2.73;;;2.50;82.40;;;;;;5011858;28;20265;-77
2022/02/14 01:00:45;;;;;;;5.43;3.30;;;2.60;82.40;;;;;;5006026;28;20189;-76
2022/02/14 01:03:11;;;;;;;3.03;2.83;;;2.60;82.30;;;;;;5011196;28;20722;-76
2022/02/14 01:05:37;;;;;;;3.33;2.60;;;2.60;82.30;;;;;;5011993;28;20187;-76
2022/02/14 01:08:04;;;;;;;3.60;3.30;;;2.60;82.20;;;;;;5009847;28;20223;-76
2022/02/14 01:10:30;;;;;;;7.23;3.37;;;2.60;82.20;;;;;;5009869;28;20207;-77
2022/02/14 01:12:56;;;;;;;4.03;3.53;;;2.70;82.20;;;;;;5009992;28;20210;-76
2022/02/14 01:15:21;;;;;;;3.50;3.20;;;2.70;82.40;;;;;;5011812;28;20327;-76
2022/02/14 01:17:47;;;;;;;3.30;3.00;;;2.70;82.40;;;;;;5012382;28;20177;-76
2022/02/14 01:20:13;;;;;;;3.37;3.00;;;2.70;82.40;;;;;;5013955;28;20189;-76
2022/02/14 01:22:40;;;;;;;3.03;2.83;;;2.70;82.40;;;;;;5008280;28;20717;-74
2022/02/14 01:25:07;;;;;;;4.13;3.57;;;2.70;82.40;;;;;;5011180;28;20181;-74
2022/02/14 01:27:33;;;;;;;5.50;3.23;;;2.70;82.50;;;;;;5014497;28;20580;-75
2022/02/14 01:29:59;;;;;;;3.73;2.73;;;2.70;82.40;;;;;;5010346;28;20180;-76
2022/02/14 01:32:25;;;;;;;5.70;3.17;;;2.70;82.40;;;;;;5011764;28;20184;-75
2022/02/14 01:34:51;;;;;;;3.50;3.20;;;2.70;82.40;;;;;;5012943;28;20203;-75
2022/02/14 01:37:17;;;;;;;3.37;3.07;;;2.70;82.30;;;;;;5008667;28;20231;-75
2022/02/14 01:39:44;;;;;;;3.13;2.93;;;2.70;82.50;;;;;;5010076;28;20210;-75
2022/02/14 01:42:10;;;;;;;5.00;2.80;;;2.70;82.60;;;;;;5012630;28;20615;-74
2022/02/14 01:44:39;;;;;;;4.33;3.57;;;2.70;82.60;;;;;;5009802;28;20182;-75
2022/02/14 01:47:12;;;;;;;3.83;3.30;;;2.70;82.60;;;;;;5011635;28;20184;-74
2022/02/14 01:49:39;;;;;;;3.63;3.30;;;2.70;82.50;;;;;;5008194;28;20189;-75
2022/02/14 01:52:06;;;;;;;3.43;2.67;;;2.70;82.60;;;;;;5013018;28;20219;-76
2022/02/14 01:54:37;;;;;;;2.43;2.33;;;2.70;82.70;;;;;;5014084;28;20185;-76
2022/02/14 01:57:07;;;;;;;2.97;2.73;;;2.60;82.70;;;;;;5010334;28;20343;-76
2022/02/14 01:59:34;;;;;;;2.83;2.73;;;2.60;82.70;;;;;;5009432;28;20694;-76
2022/02/14 02:02:01;;;;;;;4.27;3.30;;;2.60;82.90;;;;;;5013939;28;20212;-75
2022/02/14 02:04:27;;;;;;;4.57;2.40;;;2.60;82.90;;;;;;5017689;28;20265;-76
2022/02/14 02:06:54;;;;;;;3.63;2.47;;;2.60;83.00;;;;;;5011055;28;20637;-75
2022/02/14 02:09:20;;;;;;;3.47;2.97;;;2.50;83.30;;;;;;5016978;28;20212;-76
2022/02/14 02:14:30;;;;;;;2.97;2.77;;;2.40;83.40;;;;;;5012348;28;20238;-76
2022/02/14 02:17:21;;;;;;;3.77;3.23;;;2.40;83.70;;;;;;5016674;28;20185;-75
2022/02/14 02:19:47;;;;;;;3.30;1.87;;;2.40;83.20;;;;;;5011592;28;20213;-75
2022/02/14 02:22:13;;;;;;;2.53;2.33;;;2.40;83.40;;;;;;5013775;28;20271;-75
2022/02/14 02:24:53;;;;;;;2.27;2.17;;;2.50;83.40;;;;;;5013446;28;20235;-75
2022/02/14 02:27:21;;;;;;;2.93;2.73;;;2.50;83.40;;;;;;5011385;28;20195;-76
2022/02/14 02:29:48;;;;;;;3.43;2.70;;;2.50;83.30;;;;;;5010886;28;20864;-75
2022/02/14 02:32:18;;;;;;;5.03;2.97;;;2.50;83.30;;;;;;5014998;28;20267;-76
2022/02/14 02:34:47;;;;;;;3.17;2.60;;;2.50;83.20;;;;;;5011627;28;20193;-75
2022/02/14 02:37:16;;;;;;;3.00;2.60;;;2.60;83.10;;;;;;5013721;28;20251;-76
2022/02/14 02:39:43;;;;;;;3.67;3.07;;;2.60;83.10;;;;;;5016546;28;20191;-75
2022/02/14 02:42:14;;;;;;;3.50;3.20;;;2.70;83.10;;;;;;5012766;28;20217;-76
2022/02/14 02:44:41;;;;;;;3.17;2.87;;;2.70;83.10;;;;;;5012060;28;21042;-76
2022/02/14 02:47:09;;;;;;;3.33;2.90;;;2.70;83.10;;;;;;5016576;28;20577;-76
2022/02/14 02:49:36;;;;;;;3.70;2.60;;;2.70;83.00;;;;;;5018044;28;20263;-76
2022/02/14 02:52:04;;;;;;;3.10;2.90;;;2.80;82.90;;;;;;5013084;28;20188;-75
2022/02/14 02:54:29;;;;;;;3.53;3.30;;;2.80;82.90;;;;;;5013296;28;20189;-75
2022/02/14 02:56:56;;;;;;;3.77;3.47;;;2.80;82.90;;;;;;5012194;28;20184;-75
2022/02/14 02:59:23;;;;;;;5.57;3.27;;;2.80;82.70;;;;;;5012228;28;20196;-75
2022/02/14 03:01:49;;;;;;;3.10;2.80;;;2.80;82.70;;;;;;5013848;28;20307;-75
2022/02/14 03:04:16;;;;;;;7.00;3.07;;;2.80;82.70;;;;;;5012018;28;20327;-75
2022/02/14 03:06:42;;;;;;;3.63;3.33;;;2.80;82.90;;;;;;5010799;28;20201;-76
2022/02/14 03:09:12;;;;;;;4.53;3.30;;;2.90;83.00;;;;;;5008772;28;20206;-76
2022/02/14 03:11:39;;;;;;;5.20;3.67;;;2.90;83.00;;;;;;5012605;28;20181;-75
2022/02/14 03:14:08;;;;;;;4.67;3.10;;;2.90;83.20;;;;;;5012700;28;20178;-75
2022/02/14 03:16:34;;;;;;;3.60;3.40;;;2.80;83.00;;;;;;5011858;28;20250;-75
2022/02/14 03:18:59;;;;;;;3.37;3.07;;;2.80;83.00;;;;;;5014685;28;20235;-75
2022/02/14 03:21:25;;;;;;;5.73;3.30;;;2.80;82.90;;;;;;5010912;28;20774;-76
2022/02/14 03:23:53;;;;;;;3.27;2.83;;;2.80;82.90;;;;;;5015085;28;20687;-76
2022/02/14 03:26:20;;;;;;;6.70;3.10;;;2.80;82.90;;;;;;5012694;28;20188;-75
2022/02/14 03:28:51;;;;;;;4.77;3.80;;;2.80;83.00;;;;;;5009549;28;20623;-76
2022/02/14 03:31:17;;;;;;;4.67;3.10;;;2.70;82.80;;;;;;5011367;28;20193;-76
2022/02/14 03:33:43;;;;;;;6.13;3.87;;;2.70;82.90;;;;;;5012765;28;20815;-76
2022/02/14 03:36:11;;;;;;;3.40;3.20;;;2.70;83.00;;;;;;5015904;28;20185;-76
2022/02/14 03:38:36;;;;;;;5.37;3.10;;;2.60;82.90;;;;;;5010314;28;20224;-75
2022/02/14 03:41:02;;;;;;;7.10;3.33;;;2.50;82.90;;;;;;5013030;28;20244;-74
2022/02/14 03:43:28;;;;;;;6.37;4.00;;;2.50;83.10;;;;;;5009327;28;20659;-75
2022/02/14 03:45:54;;;;;;;7.20;3.73;;;2.50;83.20;;;;;;5013060;28;20185;-75
2022/02/14 03:48:23;;;;;;;6.47;3.70;;;2.40;83.60;;;;;;5007912;28;20339;-75
2022/02/14 03:50:49;;;;;;;4.30;3.70;;;2.40;83.60;;;;;;5012109;28;20176;-75
2022/02/14 03:53:15;;;;;;;3.00;2.77;;;2.40;83.80;;;;;;5008586;28;20181;-75
2022/02/14 03:55:41;;;;;;;3.80;3.50;;;2.40;83.70;;;;;;5012016;28;20196;-75
2022/02/14 03:58:07;;;;;;;4.20;3.80;;;2.40;83.80;;;;;;5012283;28;20192;-76
2022/02/14 04:00:33;;;;;;;5.27;3.80;;;2.40;83.80;;;;;;5013038;28;20181;-76
2022/02/14 04:02:58;;;;;;;4.83;3.60;;;2.40;83.90;;;;;;5011913;28;21020;-76
2022/02/14 04:05:24;;;;;;;3.90;3.60;;;2.40;83.90;;;;;;5010631;28;20192;-75
2022/02/14 04:07:51;;;;;;;4.57;3.83;;;2.40;83.90;;;;;;5009968;28;20177;-76
2022/02/14 04:10:19;;;;;;;3.50;3.30;;;2.40;83.90;;;;;;5010959;28;20238;-75
2022/02/14 04:12:45;;;;;;;3.53;3.23;;;2.40;83.90;;;;;;5010727;28;20727;-75
2022/02/14 04:15:11;;;;;;;4.67;3.47;;;2.40;83.90;;;;;;5015471;28;20276;-76
2022/02/14 04:17:37;;;;;;;4.63;3.67;;;2.40;84.00;;;;;;5014065;28;20220;-75
2022/02/14 04:20:04;;;;;;;5.97;4.10;;;2.30;84.00;;;;;;5010273;28;20653;-75
2022/02/14 04:22:33;;;;;;;7.03;3.87;;;2.30;84.00;;;;;;5015158;28;20659;-76
2022/02/14 04:24:59;;;;;;;3.77;3.47;;;2.30;84.00;;;;;;5008035;28;20187;-75
2022/02/14 04:27:24;;;;;;;3.80;3.50;;;2.20;84.10;;;;;;5009314;28;20196;-76
2022/02/14 04:29:53;;;;;;;6.47;3.17;;;2.20;84.20;;;;;;5012271;28;20647;-76
2022/02/14 04:32:19;;;;;;;4.67;3.80;;;2.20;84.10;;;;;;5009164;28;20796;-78
2022/02/14 04:34:45;;;;;;;4.57;4.07;;;2.10;84.20;;;;;;5014148;28;20196;-76
2022/02/14 04:37:10;;;;;;;5.67;3.40;;;2.10;84.50;;;;;;5011743;28;20187;-75
2022/02/14 04:39:38;;;;;;;3.57;3.37;;;2.10;84.50;;;;;;5015938;28;20217;-75
2022/02/14 04:42:04;;;;;;;3.53;3.33;;;2.00;84.50;;;;;;5014562;28;20671;-76
2022/02/14 04:44:33;;;;;;;5.23;3.93;;;2.00;84.80;;;;;;5008678;28;20216;-74
2022/02/14 04:46:58;;;;;;;4.07;3.37;;;2.00;84.80;;;;;;5011927;28;20254;-75
2022/02/14 04:49:24;;;;;;;5.43;4.50;;;2.00;85.00;;;;;;5010252;28;20256;-74
2022/02/14 04:51:50;;;;;;;5.87;4.43;;;2.00;85.10;;;;;;5014598;28;20190;-76
2022/02/14 04:54:15;;;;;;;6.60;3.87;;;2.00;85.10;;;;;;5013988;28;20666;-75
2022/02/14 04:56:41;;;;;;;7.47;4.20;;;2.00;85.10;;;;;;5008944;28;20754;-77
2022/02/14 04:59:09;;;;;;;5.87;3.40;;;2.00;85.20;;;;;;5016603;28;20245;-76
2022/02/14 05:01:38;;;;;;;3.87;3.57;;;2.00;85.10;;;;;;5010202;28;20219;-75
2022/02/14 05:04:04;;;;;;;4.43;3.83;;;2.00;85.10;;;;;;5007582;28;20192;-76
2022/02/14 05:06:29;;;;;;;5.47;4.00;;;2.00;85.20;;;;;;5014000;28;20180;-77
2022/02/14 05:08:58;;;;;;;6.30;4.30;;;2.10;85.10;;;;;;5011099;28;20611;-76
2022/02/14 05:11:23;;;;;;;8.27;4.50;;;2.10;85.20;;;;;;5011742;28;20196;-73
2022/02/14 05:13:50;;;;;;;4.13;3.73;;;2.10;85.00;;;;;;5011230;28;20632;-75
2022/02/14 05:16:22;;;;;;;9.07;4.20;;;2.10;85.20;;;;;;5010861;28;20187;-77
2022/02/14 05:18:48;;;;;;;4.20;3.73;;;2.10;85.20;;;;;;5011251;28;20185;-76
2022/02/14 05:21:13;;;;;;;5.27;4.13;;;2.10;85.20;;;;;;5010527;28;20596;-76
2022/02/14 05:23:39;;;;;;;4.93;4.10;;;2.10;85.30;;;;;;5014823;28;20183;-77
2022/02/14 05:26:05;;;;;;;3.90;3.57;;;2.10;85.20;;;;;;5009279;28;20188;-76
2022/02/14 05:28:31;;;;;;;10.40;4.30;;;2.20;85.20;;;;;;5009638;28;20180;-76
2022/02/14 05:30:56;;;;;;;5.57;3.90;;;2.20;85.20;;;;;;5008917;28;20192;-76
2022/02/14 05:33:22;;;;;;;5.67;4.37;;;2.20;85.30;;;;;;5010874;28;20663;-77
2022/02/14 05:35:48;;;;;;;9.00;4.70;;;2.20;85.30;;;;;;5012150;28;20195;-77
2022/02/14 05:38:14;;;;;;;5.40;3.17;;;2.30;85.30;;;;;;5012222;28;20342;-76
2022/02/14 05:40:39;;;;;;;5.77;3.90;;;2.30;85.20;;;;;;5004162;28;20227;-77
2022/02/14 05:43:05;;;;;;;5.30;4.43;;;2.30;85.20;;;;;;5011251;28;20717;-75
2022/02/14 05:45:31;;;;;;;7.50;4.40;;;2.40;85.20;;;;;;5008933;28;20181;-75
2022/02/14 05:47:56;;;;;;;5.10;4.23;;;2.40;85.30;;;;;;5009741;28;20192;-76
2022/02/14 05:50:22;;;;;;;4.57;4.13;;;2.40;85.20;;;;;;5012063;28;20185;-78
2022/02/14 05:52:48;;;;;;;4.03;3.23;;;2.50;85.10;;;;;;5013924;28;20192;-76
2022/02/14 05:55:14;;;;;;;4.40;3.30;;;2.50;85.10;;;;;;5016020;28;20211;-76
2022/02/14 05:57:40;;;;;;;4.60;3.50;;;2.50;85.10;;;;;;5011441;28;20216;-76
2022/02/14 06:00:08;;;;;;;3.73;3.40;;;2.60;85.20;;;;;;5012003;28;20217;-76
2022/02/14 06:02:33;;;;;;;3.47;3.17;;;2.60;84.90;;;;;;5013961;28;20301;-76
2022/02/14 06:04:59;;;;;;;3.20;2.93;;;2.60;84.90;;;;;;5010299;28;20177;-77
2022/02/14 06:07:25;;;;;;;4.47;3.67;;;2.70;84.90;;;;;;5011679;28;20189;-76
2022/02/14 06:09:51;;;;;;;5.90;4.23;;;2.70;84.70;;;;;;5013843;28;20188;-76
2022/02/14 06:12:16;;;;;;;6.27;3.70;;;2.80;84.60;;;;;;5009839;28;20224;-76
2022/02/14 06:14:42;;;;;;;4.37;3.57;;;2.80;84.50;;;;;;5016031;28;20176;-77
2022/02/14 06:17:08;;;;;;;4.00;3.70;;;2.90;84.20;;;;;;5011974;28;20284;-73
2022/02/14 06:19:34;;;;;;;4.40;4.00;;;2.90;84.20;;;;;;5006378;28;20180;-73
2022/02/14 06:22:02;;;;;;;3.63;3.30;;;2.90;84.40;;;;;;5012722;28;20663;-74
2022/02/14 06:24:30;;;;;;;5.33;4.07;;;3.00;84.30;;;;;;5015661;28;20207;-74
2022/02/14 06:26:56;;;;;;;6.30;4.47;;;3.00;84.40;;;;;;5010258;28;20223;-73
2022/02/14 06:29:24;;;;;;;5.27;3.93;;;3.00;84.60;;;;;;5010419;28;20208;-72
2022/02/14 06:31:50;;;;;;;4.37;3.97;;;3.00;84.50;;;;;;5008931;28;20189;-72
2022/02/14 06:34:16;;;;;;;4.13;3.77;;;3.10;84.60;;;;;;5007173;28;20188;-73
2022/02/14 06:36:41;;;;;;;5.17;3.70;;;3.10;84.80;;;;;;5010081;28;20203;-73
2022/02/14 06:39:10;;;;;;;3.63;3.23;;;3.10;84.90;;;;;;5012977;28;20659;-74
2022/02/14 06:41:36;;;;;;;4.73;3.20;;;3.20;85.10;;;;;;5008129;28;20299;-73
2022/02/14 06:44:02;;;;;;;4.73;3.80;;;3.20;85.10;;;;;;5007175;28;20180;-73
2022/02/14 06:46:28;;;;;;;6.50;4.60;;;3.30;85.20;;;;;;5013032;28;20191;-75
2022/02/14 06:48:54;;;;;;;7.97;4.87;;;3.40;85.40;;;;;;5011380;28;21048;-75
2022/02/14 06:51:22;;;;;;;5.83;5.27;;;3.30;85.60;;;;;;5010552;28;20185;-75
2022/02/14 06:53:48;;;;;;;5.93;3.70;;;3.30;86.00;;;;;;5005169;28;20278;-71
2022/02/14 06:56:14;;;;;;;6.47;4.90;;;3.30;86.00;;;;;;5007918;28;20307;-73
2022/02/14 06:58:41;;;;;;;6.30;5.13;;;3.30;86.00;;;;;;5005524;28;20188;-73
2022/02/14 07:01:07;;;;;;;8.57;5.43;;;3.30;86.20;;;;;;5009418;28;20212;-76
2022/02/14 07:03:35;;;;;;;10.20;7.23;;;3.30;86.60;;;;;;5013419;28;20180;-74
2022/02/14 07:06:02;;;;;;;16.80;9.07;;;3.20;87.20;;;;;;5007808;28;20670;-73
2022/02/14 07:08:28;;;;;;;13.73;8.70;;;3.10;87.60;;;;;;5009003;28;20205;-70
2022/02/14 07:10:54;;;;;;;13.33;8.87;;;3.00;88.00;;;;;;5009743;28;20216;-71
2022/02/14 07:13:20;;;;;;;12.13;9.13;;;2.90;88.90;;;;;;5008634;28;20559;-72
2022/02/14 07:15:46;;;;;;;17.90;9.67;;;2.80;89.20;;;;;;5016756;28;20186;-72
2022/02/14 07:18:12;;;;;;;14.63;9.50;;;2.80;89.50;;;;;;5011393;28;20662;-72
2022/02/14 07:20:39;;;;;;;13.77;9.17;;;2.70;89.80;;;;;;5013651;28;20181;-73
2022/02/14 07:23:05;;;;;;;23.47;11.23;;;2.70;89.90;;;;;;5012584;28;20216;-74
2022/02/14 07:25:31;;;;;;;14.90;9.57;;;2.60;90.20;;;;;;5009511;28;20572;-74
2022/02/14 07:27:57;;;;;;;14.97;8.70;;;2.60;90.20;;;;;;5014327;28;20270;-74
2022/02/14 07:30:24;;;;;;;14.33;8.37;;;2.60;90.20;;;;;;5012770;28;20189;-72
2022/02/14 07:32:50;;;;;;;16.63;9.17;;;2.70;90.20;;;;;;5016502;28;20188;-73
2022/02/14 07:35:15;;;;;;;16.47;9.00;;;2.70;90.20;;;;;;5012058;28;20267;-73
2022/02/14 07:37:42;;;;;;;13.77;9.10;;;2.80;90.00;;;;;;5008633;28;20200;-73
2022/02/14 07:40:09;;;;;;;15.40;10.20;;;2.80;90.10;;;;;;5016062;28;20183;-72
2022/02/14 07:42:35;;;;;;;10.97;8.00;;;2.80;89.80;;;;;;5015762;28;21637;-73
2022/02/14 07:45:01;;;;;;;16.07;9.70;;;2.80;90.10;;;;;;5011266;28;20832;-73
2022/02/14 07:47:27;;;;;;;13.30;9.10;;;2.80;90.30;;;;;;5012937;28;20267;-73
2022/02/14 07:49:53;;;;;;;16.03;9.33;;;2.80;90.30;;;;;;5011148;28;20185;-73
2022/02/14 07:52:18;;;;;;;13.27;8.03;;;2.70;90.70;;;;;;5012198;28;20287;-72
2022/02/14 07:54:44;;;;;;;14.57;8.93;;;2.70;90.70;;;;;;5012993;28;20258;-72
2022/02/14 07:57:10;;;;;;;9.67;7.47;;;2.70;90.80;;;;;;5015438;28;20187;-73
2022/02/14 07:59:36;;;;;;;13.43;7.00;;;2.70;90.90;;;;;;5016582;28;20187;-71
2022/02/14 08:02:02;;;;;;;11.83;7.20;;;2.80;90.70;;;;;;5012645;28;20282;-74
2022/02/14 08:04:28;;;;;;;13.23;7.37;;;2.90;90.90;;;;;;5012503;28;20189;-73
2022/02/14 08:06:53;;;;;;;12.77;8.13;;;2.90;90.40;;;;;;5015668;28;20319;-71
2022/02/14 08:09:19;;;;;;;14.70;8.10;;;3.00;90.30;;;;;;5012558;28;20185;-72
2022/02/14 08:11:45;;;;;;;26.33;9.93;;;3.00;90.00;;;;;;5014052;28;20264;-72
2022/02/14 08:14:11;;;;;;;18.07;9.17;;;3.00;90.10;;;;;;5011455;28;20189;-73
2022/02/14 08:16:37;;;;;;;11.63;7.77;;;3.10;90.00;;;;;;5014373;28;20192;-74
2022/02/14 08:19:03;;;;;;;19.90;10.17;;;3.20;90.40;;;;;;5014316;28;20285;-72
2022/02/14 08:21:31;;;;;;;20.07;11.07;;;3.20;90.40;;;;;;5009770;28;20294;-73
2022/02/14 08:23:58;;;;;;;16.83;10.93;;;3.20;90.20;;;;;;5013729;28;20276;-73
2022/02/14 08:26:24;;;;;;;17.53;10.30;;;3.30;90.00;;;;;;5012458;28;20188;-73
2022/02/14 08:28:50;;;;;;;20.87;9.90;;;3.30;89.70;;;;;;5010538;28;20193;-73
2022/02/14 08:31:15;;;;;;;16.03;9.90;;;3.40;90.00;;;;;;5011302;28;20208;-73
2022/02/14 08:33:41;;;;;;;18.03;10.87;;;3.50;90.10;;;;;;5009215;28;20286;-73
2022/02/14 08:36:07;;;;;;;19.40;11.70;;;3.50;89.70;;;;;;5008970;28;20319;-73
2022/02/14 08:38:35;;;;;;;26.13;11.73;;;3.60;89.60;;;;;;5011826;28;20208;-72
2022/02/14 08:41:01;;;;;;;23.50;12.57;;;3.70;89.50;;;;;;5011146;28;20180;-72
2022/02/14 08:43:27;;;;;;;24.33;13.30;;;3.70;89.20;;;;;;5012230;28;20196;-74
2022/02/14 08:45:54;;;;;;;24.87;14.30;;;3.70;89.20;;;;;;5010214;28;20204;-74
2022/02/14 08:48:20;;;;;;;23.13;13.37;;;3.90;89.30;;;;;;5014504;28;20184;-74
2022/02/14 08:50:45;;;;;;;23.97;14.27;;;4.00;89.40;;;;;;5014384;28;20192;-74
2022/02/14 08:53:11;;;;;;;24.27;14.20;;;4.30;89.30;;;;;;5014542;28;20193;-74
2022/02/14 08:55:37;;;;;;;17.90;12.07;;;4.50;89.20;;;;;;5006582;28;20585;-72
2022/02/14 08:58:03;;;;;;;25.83;15.40;;;4.70;88.90;;;;;;5014717;28;20657;-72
2022/02/14 09:00:30;;;;;;;30.07;15.47;;;4.80;88.20;;;;;;5010562;28;20622;-72
2022/02/14 09:02:56;;;;;;;25.60;14.50;;;5.00;88.20;;;;;;5009326;28;20295;-72
2022/02/14 09:05:23;;;;;;;25.83;14.63;;;5.10;87.70;;;;;;5009689;28;20741;-74
2022/02/14 09:07:49;;;;;;;27.53;13.67;;;5.30;87.40;;;;;;5003650;28;20813;-74
2022/02/14 09:10:16;;;;;;;23.30;12.70;;;5.40;86.80;;;;;;5012222;28;20183;-74
2022/02/14 09:12:42;;;;;;;21.37;11.73;;;5.50;85.90;;;;;;5008287;28;20859;-72
2022/02/14 09:15:08;;;;;;;18.17;10.83;;;5.50;85.40;;;;;;5008838;28;20220;-76
2022/02/14 09:17:34;;;;;;;18.87;10.13;;;5.50;85.10;;;;;;5003536;28;20582;-75
2022/02/14 09:20:00;;;;;;;16.67;10.73;;;5.50;84.90;;;;;;5007447;28;20192;-75
2022/02/14 09:22:26;;;;;;;15.57;10.30;;;5.60;84.70;;;;;;5006622;28;20212;-75
2022/02/14 09:24:52;;;;;;;18.57;11.90;;;5.60;84.20;;;;;;5009512;28;20191;-74
2022/02/14 09:27:18;;;;;;;19.80;10.97;;;5.50;84.10;;;;;;5009306;28;20181;-74
2022/02/14 09:29:43;;;;;;;14.13;10.00;;;5.50;84.60;;;;;;5013179;28;20185;-74
2022/02/14 09:32:09;;;;;;;17.50;10.50;;;5.50;84.20;;;;;;5008957;28;20678;-74
2022/02/14 09:34:35;;;;;;;17.03;10.20;;;5.40;84.10;;;;;;5007707;28;20227;-74
2022/02/14 09:37:01;;;;;;;14.63;9.60;;;5.40;84.60;;;;;;5006595;28;20282;-75
2022/02/14 09:39:30;;;;;;;15.17;9.17;;;5.40;85.20;;;;;;5010057;28;20827;-74
2022/02/14 09:42:04;;;;;;;13.00;9.60;;;5.40;85.00;;;;;;5009443;28;21079;-75
2022/02/14 09:44:31;;;;;;;11.60;9.20;;;5.40;85.00;;;;;;5006674;28;20272;-75
2022/02/14 09:46:57;;;;;;;16.87;9.27;;;5.40;84.80;;;;;;5006001;28;20177;-76
2022/02/14 09:49:23;;;;;;;16.50;9.90;;;5.40;84.60;;;;;;5008401;28;20180;-75
2022/02/14 09:51:50;;;;;;;17.67;10.80;;;5.40;84.90;;;;;;5008005;28;20604;-76
2022/02/14 09:54:16;;;;;;;24.00;11.17;;;5.40;85.10;;;;;;5013024;28;20185;-75
2022/02/14 09:56:42;;;;;;;23.47;11.80;;;5.40;85.40;;;;;;5008123;28;20192;-75
2022/02/14 09:59:10;;;;;;;20.17;11.50;;;5.40;85.30;;;;;;5011452;28;20227;-75
2022/02/14 10:01:36;;;;;;;16.07;11.27;;;5.50;85.30;;;;;;5006962;28;20212;-75
2022/02/14 10:04:02;;;;;;;22.30;12.63;;;5.50;85.40;;;;;;5012324;28;20680;-76
2022/02/14 10:06:37;;;;;;;26.60;14.83;;;5.60;85.40;;;;;;5006578;28;20200;-76
2022/02/14 10:09:13;;;;;;;24.63;15.17;;;5.60;85.10;;;;;;5008830;28;20188;-75
2022/02/14 10:11:57;;;;;;;28.07;15.90;;;5.70;85.30;;;;;;5006564;28;20184;-75
2022/02/14 10:14:23;;;;;;;30.07;16.50;;;5.80;85.00;;;;;;5008048;28;20185;-76
2022/02/14 10:17:08;;;;;;;30.07;15.00;;;5.90;85.20;;;;;;5006691;28;20231;-76
2022/02/14 10:19:45;;;;;;;25.80;15.60;;;5.90;85.20;;;;;;5008266;28;20185;-76
2022/02/14 10:22:11;;;;;;;28.30;14.63;;;6.00;85.20;;;;;;5010410;28;20693;-76
2022/02/14 10:24:39;;;;;;;23.60;14.70;;;6.10;84.90;;;;;;5008156;28;20227;-75
2022/02/14 10:27:07;;;;;;;34.50;14.67;;;6.20;84.50;;;;;;5009957;28;20271;-76
2022/02/14 10:29:33;;;;;;;28.50;16.20;;;6.20;84.20;;;;;;5011737;28;20188;-74
2022/02/14 10:32:06;;;;;;;32.73;17.70;;;6.30;84.10;;;;;;5015464;28;20192;-76
2022/02/14 10:34:34;;;;;;;34.53;17.87;;;6.40;84.00;;;;;;5010714;28;20706;-76
2022/02/14 10:37:00;;;;;;;32.07;18.97;;;6.50;83.60;;;;;;5012979;28;20730;-77
2022/02/14 10:39:28;;;;;;;30.33;17.70;;;6.60;83.10;;;;;;5010615;28;20180;-75
2022/02/14 10:42:00;;;;;;;32.63;18.47;;;6.60;82.90;;;;;;5011517;28;20262;-76
2022/02/14 10:47:19;;;;;;;28.27;16.97;;;6.80;82.70;;;;;;5010227;28;20580;-76
2022/02/14 10:49:56;;;;;;;28.33;16.33;;;6.80;82.30;;;;;;5010004;28;20181;-79
2022/02/14 10:52:22;;;;;;;28.23;17.07;;;6.70;82.40;;;;;;5007975;28;20193;-77
2022/02/14 10:54:47;;;;;;;40.00;17.67;;;6.70;82.80;;;;;;5009362;28;21023;-75
2022/02/14 10:57:30;;;;;;;30.53;17.27;;;6.80;82.70;;;;;;5009413;28;20188;-74
2022/02/14 11:00:01;;;;;;;27.20;16.77;;;6.90;82.80;;;;;;5014521;28;20256;-75
2022/02/14 11:02:28;;;;;;;31.00;17.87;;;7.10;82.80;;;;;;5015050;28;20224;-74
2022/02/14 11:04:54;;;;;;;37.80;17.63;;;7.40;83.10;;;;;;5013848;28;20195;-75
2022/02/14 11:07:21;;;;;;;32.60;17.70;;;7.70;83.10;;;;;;5015978;28;20280;-74
2022/02/14 11:09:51;;;;;;;28.30;17.07;;;8.20;82.50;;;;;;5011328;28;20189;-74
2022/02/14 11:12:21;;;;;;;33.20;19.20;;;8.90;81.70;;;;;;5014588;28;20177;-76
2022/02/14 11:14:54;;;;;;;30.33;18.63;;;9.50;79.50;;;;;;5016114;28;20185;-75
2022/02/14 11:17:29;;;;;;;32.63;19.63;;;10.10;77.60;;;;;;5016287;28;20173;-75
2022/02/14 11:20:00;;;;;;;31.17;17.67;;;10.50;76.30;;;;;;5017568;28;20191;-76
2022/02/14 11:22:29;;;;;;;31.13;18.87;;;10.90;75.20;;;;;;5012497;28;20216;-74
2022/02/14 11:25:27;;;;;;;31.23;18.17;;;11.30;74.50;;;;;;5018269;28;20202;-75
2022/02/14 11:28:24;;;;;;;29.57;18.87;;;11.60;73.20;;;;;;5005412;28;20193;-73
2022/02/14 11:31:17;;;;;;;31.53;19.53;;;11.70;72.30;;;;;;5009410;28;20741;-74
2022/02/14 11:33:56;;;;;;;28.30;18.20;;;11.60;71.30;;;;;;5004600;28;20207;-73
2022/02/14 11:36:23;;;;;;;27.73;17.80;;;11.50;71.40;;;;;;5008976;28;20181;-74
2022/02/14 11:38:54;;;;;;;27.70;18.65;;;11.30;71.80;;;;;;5010831;28;20415;-76
2022/02/14 11:41:31;;;;;;;27.02;17.45;;;11.10;71.10;;;;;;5011613;28;20682;-76
2022/02/14 11:44:12;;;;;;;28.27;18.17;;;10.80;71.60;;;;;;5012841;28;20457;-72
2022/02/14 11:46:53;;;;;;;31.37;19.17;;;10.60;72.20;;;;;;5005390;28;20313;-74
2022/02/14 11:49:33;;;;;;;28.77;18.17;;;10.50;72.50;;;;;;5012799;28;20195;-77
2022/02/14 11:52:00;;;;;;;31.20;17.83;;;10.30;73.20;;;;;;5018347;28;20196;-75
2022/02/14 11:54:37;;;;;;;29.70;18.73;;;10.20;73.60;;;;;;5002568;28;20191;-72
2022/02/14 11:57:23;;;;;;;29.40;18.10;;;10.20;73.70;;;;;;5005359;28;20255;-75
2022/02/14 11:59:50;;;;;;;26.67;16.85;;;10.20;73.30;;;;;;5006282;28;20184;-75
2022/02/14 12:02:28;;;;;;;28.70;18.15;;;10.20;73.50;;;;;;5010402;28;20225;-76
2022/02/14 12:04:55;;;;;;;29.42;18.77;;;10.30;73.70;;;;;;5013167;28;21069;-76
2022/02/14 12:07:27;;;;;;;32.57;18.87;;;10.40;73.60;;;;;;5011343;28;20189;-75
2022/02/14 12:09:58;;;;;;;31.25;19.10;;;10.40;73.20;;;;;;5006440;28;20185;-75
2022/02/14 12:12:51;;;;;;;31.23;18.37;;;10.60;73.10;;;;;;5011817;28;20185;-75
2022/02/14 12:21:03;;;;;;;33.47;18.70;;;10.70;72.30;;;;;;5008532;28;20726;-73
2022/02/14 12:23:32;;;;;;;28.33;18.05;;;11.10;73.00;;;;;;5012437;28;20193;-74
2022/02/14 12:25:59;;;;;;;35.08;18.75;;;11.60;72.00;;;;;;5008554;28;20196;-75
2022/02/14 12:28:26;;;;;;;29.17;18.80;;;12.10;71.10;;;;;;5008861;28;20879;-74
2022/02/14 12:30:53;;;;;;;29.05;17.67;;;12.50;70.50;;;;;;5008924;28;20182;-74
2022/02/14 12:33:21;;;;;;;30.90;19.40;;;12.80;69.10;;;;;;5012364;28;20188;-74
2022/02/14 12:35:50;;;;;;;29.98;18.65;;;13.10;68.50;;;;;;5011329;28;20211;-74
2022/02/14 12:38:17;;;;;;;28.80;17.38;;;13.40;68.10;;;;;;5012528;28;20275;-75
2022/02/14 12:40:50;;;;;;;31.00;18.15;;;13.80;68.60;;;;;;5012229;28;20188;-74
2022/02/14 12:43:36;;;;;;;30.70;18.25;;;14.50;67.10;;;;;;5008786;28;20263;-75
2022/02/14 12:46:23;;;;;;;32.08;19.90;;;15.20;66.10;;;;;;5010468;28;20210;-75
2022/02/14 12:48:51;;;;;;;33.45;18.10;;;15.70;64.80;;;;;;5004273;28;20227;-75
2022/02/14 12:51:27;;;;;;;38.40;20.23;;;16.20;64.30;;;;;;5007739;28;20263;-75
2022/02/14 12:54:19;;;;;;;31.83;19.80;;;16.60;62.80;;;;;;5009262;28;20207;-75
2022/02/14 12:56:46;;;;;;;27.25;19.08;;;17.00;61.80;;;;;;5006662;28;20208;-75
2022/02/14 12:59:12;;;;;;;32.20;19.52;;;17.40;62.30;;;;;;5014723;28;20873;-74
2022/02/14 13:01:43;;;;;;;30.52;19.52;;;17.80;61.60;;;;;;5008904;28;20212;-74
2022/02/14 13:04:08;;;;;;;34.53;20.63;;;17.90;59.90;;;;;;5007817;28;20638;-76